Time;durP1;ratioP1;P1;durP2;ratioP2;P2;SDS_P1;SDS_P2;PMS_P1;PMS_P2;Temp;Humidity;BMP_temperature;BMP_pressure;BME280_temperature;BME280_humidity;BME280_pressure;Samples;Min_cycle;Max_cycle;Signal;HPM_P1;HPM_P2
2024/01/25 00:00:58;;;;;;;0.10;0.10;;;;;;;;;;5056772;28;20082;-84
2024/01/25 00:03:24;;;;;;;0.30;0.30;;;;;;;;;;5057399;28;20028;-85
2024/01/25 00:05:50;;;;;;;0.10;0.10;;;;;;;;;;5057107;28;20119;-84
2024/01/25 00:08:16;;;;;;;0.10;0.10;;;;;;;;;;5057281;28;20051;-85
2024/01/25 00:10:42;;;;;;;0.20;0.20;;;;;;;;;;5056796;28;20151;-86
2024/01/25 00:13:08;;;;;;;0.20;0.20;;;;;;;;;;5056754;28;20040;-86
2024/01/25 00:15:34;;;;;;;0.10;0.10;;;;;;;;;;5073568;28;20391;-86
2024/01/25 00:18:00;;;;;;;0.20;0.20;;;;;;;;;;5056827;28;20504;-86
2024/01/25 00:20:26;;;;;;;0.10;0.10;;;;;;;;;;5057082;28;20037;-85
2024/01/25 00:22:52;;;;;;;0.10;0.10;;;;;;;;;;5056779;28;20040;-86
2024/01/25 00:25:18;;;;;;;0.20;0.20;;;;;;;;;;5056716;28;20043;-85
2024/01/25 00:27:44;;;;;;;0.52;0.15;;;;;;;;;;5073380;28;20051;-86
2024/01/25 00:30:11;;;;;;;0.10;0.10;;;;;;;;;;5056594;28;20136;-86
2024/01/25 00:32:37;;;;;;;0.20;0.20;;;;;;;;;;5056932;28;20098;-86
2024/01/25 00:35:03;;;;;;;0.65;0.55;;;;;;;;;;5073391;28;20389;-86
2024/01/25 00:37:30;;;;;;;0.30;0.30;;;;;;;;;;5072455;28;20450;-86
2024/01/25 00:39:57;;;;;;;0.17;0.17;;;;;;;;;;5056552;28;20090;-86
2024/01/25 00:42:24;;;;;;;0.50;0.50;;;;;;;;;;5056633;28;20044;-86
2024/01/25 00:44:50;;;;;;;0.10;0.10;;;;;;;;;;5056410;28;20044;-85
2024/01/25 00:47:16;;;;;;;0.25;0.25;;;;;;;;;;5056752;28;20392;-85
2024/01/25 00:49:42;;;;;;;0.63;0.55;;;;;;;;;;5056039;28;20080;-86
2024/01/25 00:52:09;;;;;;;0.10;0.10;;;;;;;;;;5056177;28;20089;-86
2024/01/25 00:54:35;;;;;;;0.17;0.17;;;;;;;;;;5056381;28;20044;-85
2024/01/25 00:57:01;;;;;;;0.10;0.10;;;;;;;;;;5055959;28;20046;-85
2024/01/25 00:59:27;;;;;;;0.10;0.10;;;;;;;;;;5056088;28;20040;-86
2024/01/25 01:01:54;;;;;;;0.10;0.10;;;;;;;;;;5056283;28;20128;-85
2024/01/25 01:04:20;;;;;;;0.10;0.10;;;;;;;;;;5055869;28;20044;-85
2024/01/25 01:06:47;;;;;;;0.10;0.10;;;;;;;;;;5072683;28;20043;-85
2024/01/25 01:09:14;;;;;;;0.10;0.10;;;;;;;;;;5056131;28;20517;-84
2024/01/25 01:11:40;;;;;;;0.22;0.22;;;;;;;;;;5055725;28;20037;-85
2024/01/25 01:14:06;;;;;;;0.43;0.20;;;;;;;;;;5072224;28;20067;-86
2024/01/25 01:16:33;;;;;;;0.10;0.10;;;;;;;;;;5055995;28;20044;-85
2024/01/25 01:19:05;;;;;;;0.40;0.35;;;;;;;;;;5055962;28;20047;-86
2024/01/25 01:21:32;;;;;;;0.75;0.20;;;;;;;;;;5056904;28;20106;-85
2024/01/25 01:23:58;;;;;;;0.10;0.10;;;;;;;;;;5055876;28;20040;-86
2024/01/25 01:26:24;;;;;;;0.10;0.10;;;;;;;;;;5072227;28;20044;-86
2024/01/25 01:28:50;;;;;;;0.10;0.10;;;;;;;;;;5055656;28;20373;-86
2024/01/25 01:31:16;;;;;;;0.10;0.10;;;;;;;;;;5055389;28;20047;-86
2024/01/25 01:33:42;;;;;;;0.35;0.35;;;;;;;;;;5072073;28;20040;-86
2024/01/25 01:36:08;;;;;;;0.25;0.25;;;;;;;;;;5055351;28;20089;-85
2024/01/25 01:38:34;;;;;;;0.10;0.10;;;;;;;;;;5055566;28;20036;-86
2024/01/25 01:41:00;;;;;;;0.10;0.10;;;;;;;;;;5055449;28;20043;-86
2024/01/25 01:43:26;;;;;;;0.10;0.10;;;;;;;;;;5055438;28;20246;-86
2024/01/25 01:45:52;;;;;;;0.10;0.10;;;;;;;;;;5055130;28;20111;-87
2024/01/25 01:48:18;;;;;;;0.20;0.20;;;;;;;;;;5054285;28;20699;-87
2024/01/25 01:50:44;;;;;;;0.10;0.10;;;;;;;;;;5054885;28;20093;-87
2024/01/25 01:53:11;;;;;;;0.10;0.10;;;;;;;;;;5055621;28;20043;-87
2024/01/25 01:55:37;;;;;;;0.10;0.10;;;;;;;;;;5055171;28;20479;-86
2024/01/25 01:58:03;;;;;;;0.10;0.10;;;;;;;;;;5055615;28;20114;-86
2024/01/25 02:00:29;;;;;;;0.10;0.10;;;;;;;;;;5055476;28;20157;-87
2024/01/25 02:02:57;;;;;;;0.10;0.10;;;;;;;;;;5055170;28;20083;-87
2024/01/25 02:05:23;;;;;;;0.30;0.30;;;;;;;;;;5055480;28;20483;-86
2024/01/25 02:07:49;;;;;;;0.10;0.10;;;;;;;;;;5054967;28;20041;-86
2024/01/25 02:10:15;;;;;;;0.10;0.10;;;;;;;;;;5054647;28;20104;-86
2024/01/25 02:12:41;;;;;;;5.25;0.20;;;;;;;;;;5054694;28;20071;-86
2024/01/25 02:15:07;;;;;;;0.10;0.10;;;;;;;;;;5054950;28;20043;-86
2024/01/25 02:17:33;;;;;;;0.10;0.10;;;;;;;;;;5054901;28;20037;-86
2024/01/25 02:20:02;;;;;;;0.10;0.10;;;;;;;;;;5071282;28;20044;-87
2024/01/25 02:22:28;;;;;;;0.10;0.10;;;;;;;;;;5054962;28;20040;-86
2024/01/25 02:24:54;;;;;;;0.10;0.10;;;;;;;;;;5054782;28;20083;-86
2024/01/25 02:27:20;;;;;;;0.10;0.10;;;;;;;;;;5054488;28;20076;-86
2024/01/25 02:29:46;;;;;;;0.15;0.15;;;;;;;;;;5054597;28;20094;-85
2024/01/25 02:32:12;;;;;;;0.10;0.10;;;;;;;;;;5054873;28;20041;-85
2024/01/25 02:34:38;;;;;;;0.10;0.10;;;;;;;;;;5054430;28;20141;-87
2024/01/25 02:37:05;;;;;;;0.10;0.10;;;;;;;;;;5054550;28;20110;-86
2024/01/25 02:39:31;;;;;;;0.10;0.10;;;;;;;;;;5054600;28;20044;-86
2024/01/25 02:41:57;;;;;;;0.10;0.10;;;;;;;;;;5054283;28;20044;-86
2024/01/25 02:44:23;;;;;;;0.10;0.10;;;;;;;;;;5070902;28;20040;-85
2024/01/25 02:46:49;;;;;;;0.10;0.10;;;;;;;;;;5054323;28;20083;-85
2024/01/25 02:49:15;;;;;;;0.10;0.10;;;;;;;;;;5054041;28;20102;-86
2024/01/25 02:51:41;;;;;;;0.10;0.10;;;;;;;;;;5054054;28;20049;-85
2024/01/25 02:54:07;;;;;;;0.10;0.10;;;;;;;;;;5070788;28;20491;-86
2024/01/25 02:56:35;;;;;;;0.17;0.17;;;;;;;;;;5054778;28;20176;-85
2024/01/25 02:59:01;;;;;;;0.10;0.10;;;;;;;;;;5071047;28;20076;-86
2024/01/25 03:01:28;;;;;;;0.10;0.10;;;;;;;;;;5057525;28;20431;-86
2024/01/25 03:03:54;;;;;;;0.10;0.10;;;;;;;;;;5074778;28;20048;-86
2024/01/25 03:06:20;;;;;;;0.10;0.10;;;;;;;;;;5074580;28;20044;-86
2024/01/25 03:08:46;;;;;;;0.10;0.10;;;;;;;;;;5058236;28;20044;-85
2024/01/25 03:11:12;;;;;;;0.20;0.20;;;;;;;;;;5058077;28;20561;-85
2024/01/25 03:13:38;;;;;;;0.10;0.10;;;;;;;;;;5074551;28;20078;-85
2024/01/25 03:16:05;;;;;;;0.68;0.22;;;;;;;;;;5074950;28;20101;-85
2024/01/25 03:18:31;;;;;;;0.70;0.28;;;;;;;;;;5058065;28;20154;-85
2024/01/25 03:20:57;;;;;;;0.20;0.20;;;;;;;;;;5058014;28;20388;-85
2024/01/25 03:23:23;;;;;;;0.17;0.17;;;;;;;;;;5074599;28;20123;-85
2024/01/25 03:25:50;;;;;;;3.60;0.95;;;;;;;;;;5074442;28;20098;-85
2024/01/25 03:28:18;;;;;;;0.10;0.10;;;;;;;;;;5057877;28;20542;-86
2024/01/25 03:30:44;;;;;;;0.10;0.10;;;;;;;;;;5058078;28;20048;-86
2024/01/25 03:33:10;;;;;;;0.10;0.10;;;;;;;;;;5074357;28;20068;-86
2024/01/25 03:35:36;;;;;;;15.60;0.85;;;;;;;;;;5058020;28;20115;-85
2024/01/25 03:38:02;;;;;;;0.10;0.10;;;;;;;;;;5074455;28;20124;-85
2024/01/25 03:40:28;;;;;;;0.10;0.10;;;;;;;;;;5057678;28;20123;-87
2024/01/25 03:42:54;;;;;;;0.10;0.10;;;;;;;;;;5057433;28;20090;-85
2024/01/25 03:45:21;;;;;;;0.25;0.25;;;;;;;;;;5074065;28;20048;-85
2024/01/25 03:47:47;;;;;;;0.10;0.10;;;;;;;;;;5057415;28;20041;-85
2024/01/25 03:50:13;;;;;;;0.10;0.10;;;;;;;;;;5057070;28;20041;-84
2024/01/25 03:52:39;;;;;;;0.10;0.10;;;;;;;;;;5057397;28;20044;-85
2024/01/25 03:55:05;;;;;;;0.10;0.10;;;;;;;;;;5057646;28;20123;-85
2024/01/25 03:57:31;;;;;;;0.43;0.20;;;;;;;;;;5057506;28;20519;-85
2024/01/25 03:59:57;;;;;;;0.98;0.20;;;;;;;;;;5057072;28;20072;-85
2024/01/25 04:02:23;;;;;;;0.10;0.10;;;;;;;;;;5057033;28;20083;-85
2024/01/25 04:04:49;;;;;;;0.10;0.10;;;;;;;;;;5057068;28;20050;-84
2024/01/25 04:07:16;;;;;;;0.28;0.20;;;;;;;;;;5057062;28;20040;-84
2024/01/25 04:09:41;;;;;;;0.10;0.10;;;;;;;;;;5056915;28;20048;-85
2024/01/25 04:12:08;;;;;;;0.10;0.10;;;;;;;;;;5073019;28;20047;-85
2024/01/25 04:14:34;;;;;;;0.10;0.10;;;;;;;;;;5073500;28;20040;-85
2024/01/25 04:17:00;;;;;;;0.10;0.10;;;;;;;;;;5056913;28;20123;-85
2024/01/25 04:19:26;;;;;;;0.10;0.10;;;;;;;;;;5073340;28;20408;-85
2024/01/25 04:21:52;;;;;;;0.38;0.38;;;;;;;;;;5073493;28;20098;-85
2024/01/25 04:24:18;;;;;;;0.15;0.15;;;;;;;;;;5057223;28;20055;-85
2024/01/25 04:26:44;;;;;;;0.10;0.10;;;;;;;;;;5056683;28;20488;-86
2024/01/25 04:29:10;;;;;;;0.10;0.10;;;;;;;;;;5056816;28;20041;-85
2024/01/25 04:31:42;;;;;;;0.10;0.10;;;;;;;;;;5073210;28;20037;-86
2024/01/25 04:34:08;;;;;;;0.10;0.10;;;;;;;;;;5057204;28;20036;-86
2024/01/25 04:36:34;;;;;;;0.10;0.10;;;;;;;;;;5073205;28;20494;-86
2024/01/25 04:39:00;;;;;;;0.10;0.10;;;;;;;;;;5056500;28;20040;-86
2024/01/25 04:41:26;;;;;;;0.10;0.10;;;;;;;;;;5056322;28;20039;-85
2024/01/25 04:43:52;;;;;;;0.10;0.10;;;;;;;;;;5056314;28;20036;-86
2024/01/25 04:46:18;;;;;;;0.10;0.10;;;;;;;;;;5056325;28;20074;-87
2024/01/25 04:48:46;;;;;;;0.10;0.10;;;;;;;;;;5056310;28;20083;-86
2024/01/25 04:51:19;;;;;;;0.10;0.10;;;;;;;;;;5072727;28;20048;-85
2024/01/25 04:53:45;;;;;;;0.10;0.10;;;;;;;;;;5072678;28;20075;-85
2024/01/25 04:56:11;;;;;;;0.10;0.10;;;;;;;;;;5056461;28;20093;-86
2024/01/25 04:58:37;;;;;;;0.10;0.10;;;;;;;;;;5056372;28;20044;-86
2024/01/25 05:01:03;;;;;;;0.10;0.10;;;;;;;;;;5056398;28;20113;-86
2024/01/25 05:03:30;;;;;;;0.10;0.10;;;;;;;;;;5056216;28;20048;-86
2024/01/25 05:05:56;;;;;;;0.10;0.10;;;;;;;;;;5056339;28;20055;-86
2024/01/25 05:08:22;;;;;;;0.10;0.10;;;;;;;;;;5056325;28;20442;-85
2024/01/25 05:10:48;;;;;;;0.10;0.10;;;;;;;;;;5055682;28;20032;-85
2024/01/25 05:13:15;;;;;;;0.10;0.10;;;;;;;;;;5055984;28;20047;-85
2024/01/25 05:15:41;;;;;;;0.10;0.10;;;;;;;;;;5072356;28;20040;-85
2024/01/25 05:18:07;;;;;;;0.10;0.10;;;;;;;;;;5072297;28;20075;-86
2024/01/25 05:20:34;;;;;;;0.10;0.10;;;;;;;;;;5072285;28;20044;-86
2024/01/25 05:23:00;;;;;;;0.10;0.10;;;;;;;;;;5071961;28;20123;-85
2024/01/25 05:25:27;;;;;;;0.10;0.10;;;;;;;;;;5055531;28;20044;-85
2024/01/25 05:27:53;;;;;;;0.10;0.10;;;;;;;;;;5072320;28;20045;-84
2024/01/25 05:30:19;;;;;;;0.10;0.10;;;;;;;;;;5072600;28;20037;-89
2024/01/25 05:32:46;;;;;;;0.10;0.10;;;;;;;;;;5072420;28;20041;-86
2024/01/25 05:35:12;;;;;;;0.20;0.20;;;;;;;;;;5056059;28;20044;-85
2024/01/25 05:37:38;;;;;;;0.10;0.10;;;;;;;;;;5054886;28;20045;-86
2024/01/25 05:40:04;;;;;;;0.10;0.10;;;;;;;;;;5071872;28;20340;-86
2024/01/25 05:42:30;;;;;;;0.10;0.10;;;;;;;;;;5071746;28;20044;-86
2024/01/25 05:44:56;;;;;;;0.10;0.10;;;;;;;;;;5055243;28;20047;-86
2024/01/25 05:47:22;;;;;;;0.10;0.10;;;;;;;;;;5055230;28;20083;-86
2024/01/25 05:49:48;;;;;;;0.10;0.10;;;;;;;;;;5054823;28;20044;-86
2024/01/25 05:52:14;;;;;;;0.10;0.10;;;;;;;;;;5055880;28;20418;-86
2024/01/25 05:54:40;;;;;;;0.10;0.10;;;;;;;;;;5072194;28;20503;-86
2024/01/25 05:57:06;;;;;;;0.10;0.10;;;;;;;;;;5071533;28;20476;-86
2024/01/25 05:59:32;;;;;;;0.10;0.10;;;;;;;;;;5071620;28;20082;-86
2024/01/25 06:01:58;;;;;;;0.10;0.10;;;;;;;;;;5054851;28;20036;-86
2024/01/25 06:04:24;;;;;;;0.10;0.10;;;;;;;;;;5055324;28;20040;-86
2024/01/25 06:06:51;;;;;;;0.10;0.10;;;;;;;;;;5055029;28;20051;-86
2024/01/25 06:09:17;;;;;;;0.10;0.10;;;;;;;;;;5054682;28;20101;-86
2024/01/25 06:11:43;;;;;;;0.10;0.10;;;;;;;;;;5054698;28;20044;-85
2024/01/25 06:14:09;;;;;;;0.10;0.10;;;;;;;;;;5054762;28;20040;-86
2024/01/25 06:16:35;;;;;;;0.10;0.10;;;;;;;;;;5054925;28;20046;-86
2024/01/25 06:19:02;;;;;;;0.10;0.10;;;;;;;;;;5071361;28;20507;-86
2024/01/25 06:21:28;;;;;;;0.10;0.10;;;;;;;;;;5054641;28;20491;-86
2024/01/25 06:23:55;;;;;;;0.10;0.10;;;;;;;;;;5054875;28;20036;-86
2024/01/25 06:26:21;;;;;;;0.10;0.10;;;;;;;;;;5054741;28;20135;-86
2024/01/25 06:28:47;;;;;;;0.10;0.10;;;;;;;;;;5054613;28;20037;-85
2024/01/25 06:31:13;;;;;;;0.10;0.10;;;;;;;;;;5071379;28;20044;-86
2024/01/25 06:33:39;;;;;;;0.20;0.20;;;;;;;;;;5054400;28;20070;-86
2024/01/25 06:36:05;;;;;;;0.10;0.10;;;;;;;;;;5053920;28;20037;-86
2024/01/25 06:38:31;;;;;;;0.10;0.10;;;;;;;;;;5054312;28;20127;-86
2024/01/25 06:40:57;;;;;;;0.20;0.20;;;;;;;;;;5054250;28;20041;-85
2024/01/25 06:43:23;;;;;;;0.13;0.13;;;;;;;;;;5087722;28;20045;-85
2024/01/25 06:45:49;;;;;;;0.10;0.10;;;;;;;;;;5054358;28;20519;-85
2024/01/25 06:48:15;;;;;;;0.10;0.10;;;;;;;;;;5054543;28;20149;-85
2024/01/25 06:50:41;;;;;;;0.10;0.10;;;;;;;;;;5054032;28;20049;-85
2024/01/25 06:53:07;;;;;;;0.10;0.10;;;;;;;;;;5054130;28;20119;-86
2024/01/25 06:55:33;;;;;;;0.10;0.10;;;;;;;;;;5070853;28;20044;-85
2024/01/25 06:57:59;;;;;;;0.10;0.10;;;;;;;;;;5054117;28;20037;-85
2024/01/25 07:00:25;;;;;;;0.10;0.10;;;;;;;;;;5054035;28;20043;-85
2024/01/25 07:02:52;;;;;;;0.10;0.10;;;;;;;;;;5054514;28;20049;-86
2024/01/25 07:05:18;;;;;;;0.10;0.10;;;;;;;;;;5054472;28;20040;-86
2024/01/25 07:07:44;;;;;;;0.10;0.10;;;;;;;;;;5054205;28;20037;-86
2024/01/25 07:10:11;;;;;;;0.10;0.10;;;;;;;;;;5053989;28;20058;-86
2024/01/25 07:12:38;;;;;;;0.10;0.10;;;;;;;;;;5054189;28;20036;-87
2024/01/25 07:15:05;;;;;;;0.10;0.10;;;;;;;;;;5070757;28;20037;-86
2024/01/25 07:17:31;;;;;;;0.10;0.10;;;;;;;;;;5054438;28;20435;-85
2024/01/25 07:19:57;;;;;;;0.10;0.10;;;;;;;;;;5054328;28;20399;-87
2024/01/25 07:22:23;;;;;;;0.10;0.10;;;;;;;;;;5054149;28;20051;-86
2024/01/25 07:24:49;;;;;;;0.10;0.10;;;;;;;;;;5054534;28;20403;-87
2024/01/25 07:27:15;;;;;;;0.10;0.10;;;;;;;;;;5054838;28;20048;-86
2024/01/25 07:29:45;;;;;;;0.10;0.10;;;;;;;;;;5054330;28;20522;-87
2024/01/25 07:32:11;;;;;;;1.38;0.80;;;;;;;;;;5054352;28;20048;-88
2024/01/25 07:34:38;;;;;;;0.10;0.10;;;;;;;;;;5054432;28;20506;-87
2024/01/25 07:37:04;;;;;;;0.55;0.55;;;;;;;;;;5054681;28;20037;-87
2024/01/25 07:39:30;;;;;;;0.10;0.10;;;;;;;;;;5054651;28;20118;-87
2024/01/25 07:41:58;;;;;;;0.10;0.10;;;;;;;;;;5054129;28;20094;-87
2024/01/25 07:44:24;;;;;;;0.10;0.10;;;;;;;;;;5054443;28;20045;-87
2024/01/25 07:46:50;;;;;;;0.10;0.10;;;;;;;;;;5054489;28;20040;-87
2024/01/25 07:49:16;;;;;;;0.10;0.10;;;;;;;;;;5057281;28;20048;-87
2024/01/25 07:51:42;;;;;;;0.10;0.10;;;;;;;;;;5057587;28;20396;-87
2024/01/25 07:54:08;;;;;;;0.10;0.10;;;;;;;;;;5057456;28;20044;-87
2024/01/25 07:56:34;;;;;;;0.10;0.10;;;;;;;;;;5073780;28;20045;-87
2024/01/25 07:59:01;;;;;;;0.10;0.10;;;;;;;;;;5057823;28;20119;-86
2024/01/25 08:01:27;;;;;;;0.10;0.10;;;;;;;;;;5057573;28;20126;-86
2024/01/25 08:03:53;;;;;;;0.10;0.10;;;;;;;;;;5057152;28;20515;-86
2024/01/25 08:06:19;;;;;;;0.10;0.10;;;;;;;;;;5073753;28;20115;-87
2024/01/25 08:08:45;;;;;;;0.10;0.10;;;;;;;;;;5057218;28;20125;-86
2024/01/25 08:11:11;;;;;;;0.30;0.30;;;;;;;;;;5057480;28;20068;-88
2024/01/25 08:13:37;;;;;;;0.10;0.10;;;;;;;;;;5057781;28;20036;-87
2024/01/25 08:16:03;;;;;;;0.25;0.25;;;;;;;;;;5057541;28;20032;-88
2024/01/25 08:18:29;;;;;;;0.10;0.10;;;;;;;;;;5074032;28;20182;-88
2024/01/25 08:20:56;;;;;;;0.10;0.10;;;;;;;;;;5056826;28;20048;-89
2024/01/25 08:23:23;;;;;;;0.20;0.20;;;;;;;;;;5057543;28;20044;-87
2024/01/25 08:25:49;;;;;;;0.10;0.10;;;;;;;;;;5057603;28;20100;-88
2024/01/25 08:28:15;;;;;;;0.10;0.10;;;;;;;;;;5057896;28;20426;-88
2024/01/25 08:30:42;;;;;;;0.10;0.10;;;;;;;;;;5057338;28;20258;-90
2024/01/25 08:33:09;;;;;;;0.10;0.10;;;;;;;;;;5072837;28;20085;-87
2024/01/25 08:35:35;;;;;;;0.10;0.10;;;;;;;;;;4992258;28;20201;-87
2024/01/25 08:38:01;;;;;;;0.10;0.10;;;;;;;;;;5014175;28;20046;-88
2024/01/25 08:40:27;;;;;;;0.10;0.10;;;;;;;;;;4997671;28;20041;-88
2024/01/25 08:42:53;;;;;;;6.05;0.40;;;;;;;;;;4996590;28;20077;-87
2024/01/25 08:45:19;;;;;;;0.10;0.10;;;;;;;;;;4962756;28;20046;-87
2024/01/25 08:47:46;;;;;;;0.10;0.10;;;;;;;;;;4961502;28;20058;-85
2024/01/25 08:50:12;;;;;;;0.10;0.10;;;;;;;;;;4961115;28;20054;-85
2024/01/25 08:52:40;;;;;;;0.10;0.10;;;;;;;;;;4961651;28;20065;-85
2024/01/25 08:55:07;;;;;;;0.10;0.10;;;;;;;;;;4993854;28;20042;-85
2024/01/25 08:57:33;;;;;;;0.10;0.10;;;;;;;;;;4993258;28;20122;-85
2024/01/25 09:00:00;;;;;;;0.10;0.10;;;;;;;;;;4960997;28;20078;-85
2024/01/25 09:02:27;;;;;;;0.10;0.10;;;;;;;;;;4993288;28;20046;-86
2024/01/25 09:04:53;;;;;;;0.10;0.10;;;;;;;;;;4961256;28;20575;-86
2024/01/25 09:07:20;;;;;;;0.10;0.10;;;;;;;;;;4993645;28;20053;-85
2024/01/25 09:09:46;;;;;;;0.10;0.10;;;;;;;;;;4977021;28;20042;-86
2024/01/25 09:12:12;;;;;;;0.10;0.10;;;;;;;;;;4993338;28;20041;-85
2024/01/25 09:14:39;;;;;;;10.05;0.90;;;;;;;;;;4972987;28;20038;-86
2024/01/25 09:17:06;;;;;;;0.20;0.20;;;;;;;;;;4996094;28;20045;-86
2024/01/25 09:19:32;;;;;;;0.10;0.10;;;;;;;;;;4996379;28;20061;-86
2024/01/25 09:22:01;;;;;;;0.20;0.20;;;;;;;;;;4979632;28;20069;-86
2024/01/25 09:24:27;;;;;;;0.10;0.10;;;;;;;;;;4979809;28;20053;-86
2024/01/25 09:26:55;;;;;;;0.10;0.10;;;;;;;;;;4992915;28;20069;-86
2024/01/25 09:29:21;;;;;;;0.10;0.10;;;;;;;;;;5003968;28;20053;-84
2024/01/25 09:31:47;;;;;;;0.10;0.10;;;;;;;;;;4989794;28;20529;-86
2024/01/25 09:34:13;;;;;;;0.10;0.10;;;;;;;;;;4985860;28;20037;-86
2024/01/25 09:36:39;;;;;;;0.10;0.10;;;;;;;;;;5012228;28;20080;-85
2024/01/25 09:39:05;;;;;;;0.10;0.10;;;;;;;;;;4979871;28;20077;-86
2024/01/25 09:41:31;;;;;;;0.10;0.10;;;;;;;;;;4975615;28;20042;-86
2024/01/25 09:43:57;;;;;;;0.10;0.10;;;;;;;;;;4960077;28;20042;-86
2024/01/25 09:46:23;;;;;;;0.10;0.10;;;;;;;;;;4960158;28;20038;-85
2024/01/25 09:48:49;;;;;;;0.15;0.15;;;;;;;;;;4960072;28;20090;-86
2024/01/25 09:51:16;;;;;;;0.10;0.10;;;;;;;;;;4960042;28;20046;-86
2024/01/25 09:53:42;;;;;;;0.10;0.10;;;;;;;;;;4976003;28;20038;-86
2024/01/25 09:56:12;;;;;;;0.10;0.10;;;;;;;;;;4976150;28;20074;-86
2024/01/25 09:58:39;;;;;;;0.10;0.10;;;;;;;;;;4976273;28;20038;-86
2024/01/25 10:01:06;;;;;;;0.10;0.10;;;;;;;;;;4976165;28;20057;-83
2024/01/25 10:03:34;;;;;;;0.10;0.10;;;;;;;;;;4991988;28;20046;-87
2024/01/25 10:06:00;;;;;;;0.10;0.10;;;;;;;;;;4962734;28;20133;-86
2024/01/25 10:08:26;;;;;;;0.10;0.10;;;;;;;;;;4977748;28;20131;-87
2024/01/25 10:10:53;;;;;;;0.10;0.10;;;;;;;;;;4959315;28;20052;-87
2024/01/25 10:13:19;;;;;;;0.10;0.10;;;;;;;;;;4976102;28;20402;-88
2024/01/25 10:15:47;;;;;;;0.10;0.10;;;;;;;;;;4959745;28;20039;-86
2024/01/25 10:18:13;;;;;;;0.10;0.10;;;;;;;;;;4960109;28;20474;-87
2024/01/25 10:20:40;;;;;;;0.10;0.10;;;;;;;;;;4959601;28;20042;-87
2024/01/25 10:23:06;;;;;;;0.10;0.10;;;;;;;;;;4975875;28;20042;-86
2024/01/25 10:25:36;;;;;;;0.10;0.10;;;;;;;;;;4959569;28;20053;-86
2024/01/25 10:28:08;;;;;;;0.10;0.10;;;;;;;;;;4959902;28;20389;-86
2024/01/25 10:30:35;;;;;;;0.10;0.10;;;;;;;;;;4991762;28;20050;-88
2024/01/25 10:33:01;;;;;;;0.45;0.45;;;;;;;;;;4959704;28;20046;-87
2024/01/25 10:35:28;;;;;;;0.10;0.10;;;;;;;;;;4976215;28;20074;-88
2024/01/25 10:37:54;;;;;;;0.10;0.10;;;;;;;;;;4959636;28;20042;-87
2024/01/25 10:40:20;;;;;;;0.10;0.10;;;;;;;;;;4959755;28;20038;-86
2024/01/25 10:42:46;;;;;;;0.10;0.10;;;;;;;;;;4959604;28;20130;-87
2024/01/25 10:45:13;;;;;;;0.10;0.10;;;;;;;;;;4959648;28;20557;-87
2024/01/25 10:47:40;;;;;;;0.10;0.10;;;;;;;;;;4959529;28;20482;-87
2024/01/25 10:50:10;;;;;;;0.10;0.10;;;;;;;;;;4959337;28;20069;-85
2024/01/25 10:52:36;;;;;;;0.20;0.20;;;;;;;;;;4975643;28;20042;-85
2024/01/25 10:55:04;;;;;;;0.10;0.10;;;;;;;;;;4975505;28;20068;-86
2024/01/25 10:57:35;;;;;;;0.10;0.10;;;;;;;;;;4959477;28;20165;-84
2024/01/25 11:00:03;;;;;;;0.15;0.15;;;;;;;;;;4975469;28;20161;-86
2024/01/25 11:02:30;;;;;;;0.10;0.10;;;;;;;;;;4991874;28;20042;-87
2024/01/25 11:04:56;;;;;;;0.10;0.10;;;;;;;;;;4959650;28;20050;-86
2024/01/25 11:07:22;;;;;;;0.10;0.10;;;;;;;;;;4963884;28;20097;-89
2024/01/25 11:09:51;;;;;;;0.10;0.10;;;;;;;;;;4958880;28;20563;-88
2024/01/25 11:12:18;;;;;;;0.10;0.10;;;;;;;;;;4959472;28;20042;-86
2024/01/25 11:14:44;;;;;;;0.10;0.10;;;;;;;;;;4975318;28;20053;-86
2024/01/25 11:17:20;;;;;;;0.20;0.20;;;;;;;;;;4959447;28;20038;-85
2024/01/25 11:19:46;;;;;;;0.10;0.10;;;;;;;;;;4959174;28;20047;-86
2024/01/25 11:22:12;;;;;;;0.10;0.10;;;;;;;;;;4977701;28;20505;-86
2024/01/25 11:24:39;;;;;;;0.10;0.10;;;;;;;;;;4963354;28;20042;-88
2024/01/25 11:27:05;;;;;;;0.10;0.10;;;;;;;;;;4978981;28;20042;-87
2024/01/25 11:29:32;;;;;;;0.10;0.10;;;;;;;;;;4978709;28;20043;-87
2024/01/25 11:31:58;;;;;;;0.10;0.10;;;;;;;;;;4963328;28;20178;-87
2024/01/25 11:34:24;;;;;;;0.10;0.10;;;;;;;;;;4979291;28;20430;-87
2024/01/25 11:36:50;;;;;;;0.10;0.10;;;;;;;;;;4962812;28;20038;-85
2024/01/25 11:39:16;;;;;;;0.10;0.10;;;;;;;;;;4963095;28;20046;-88
2024/01/25 11:41:43;;;;;;;0.10;0.10;;;;;;;;;;4963179;28;20034;-88
2024/01/25 11:44:13;;;;;;;0.10;0.10;;;;;;;;;;4979885;28;20034;-88
2024/01/25 11:46:39;;;;;;;0.13;0.13;;;;;;;;;;4980021;28;20042;-88
2024/01/25 11:49:07;;;;;;;0.10;0.10;;;;;;;;;;4963963;28;20529;-88
2024/01/25 11:51:33;;;;;;;0.10;0.10;;;;;;;;;;4982359;28;20057;-90
2024/01/25 11:53:59;;;;;;;0.10;0.10;;;;;;;;;;5000894;28;20061;-88
2024/01/25 11:56:30;;;;;;;0.10;0.10;;;;;;;;;;5000629;28;20076;-89
2024/01/25 11:58:56;;;;;;;0.10;0.10;;;;;;;;;;5000858;28;20077;-88
2024/01/25 12:01:23;;;;;;;0.10;0.10;;;;;;;;;;4984938;28;20041;-88
2024/01/25 12:03:49;;;;;;;0.10;0.10;;;;;;;;;;4985447;28;20041;-90
2024/01/25 12:06:15;;;;;;;0.10;0.10;;;;;;;;;;4986278;28;20110;-89
2024/01/25 12:08:41;;;;;;;0.10;0.10;;;;;;;;;;5002837;28;20176;-88
2024/01/25 12:11:08;;;;;;;0.10;0.10;;;;;;;;;;4987021;28;20034;-89
2024/01/25 12:13:41;;;;;;;0.10;0.10;;;;;;;;;;4988103;28;20052;-87
2024/01/25 12:16:07;;;;;;;;;;;;;;;;;;4987006;28;20217;-87
2024/01/25 12:18:35;;;;;;;0.10;0.10;;;;;;;;;;5017117;28;19918;-86
2024/01/25 12:21:01;;;;;;;0.10;0.10;;;;;;;;;;4983913;28;20053;-86
2024/01/25 12:23:31;;;;;;;0.10;0.10;;;;;;;;;;4997952;28;20037;-86
2024/01/25 12:26:02;;;;;;;0.10;0.10;;;;;;;;;;4981288;28;20046;-86
2024/01/25 12:28:28;;;;;;;0.10;0.10;;;;;;;;;;4981207;28;20513;-86
2024/01/25 12:30:55;;;;;;;0.10;0.10;;;;;;;;;;4996888;28;20037;-86
2024/01/25 12:33:21;;;;;;;0.10;0.10;;;;;;;;;;4980367;28;20045;-86
2024/01/25 12:35:47;;;;;;;0.10;0.10;;;;;;;;;;4970250;28;20096;-88
2024/01/25 12:38:13;;;;;;;0.10;0.10;;;;;;;;;;4962541;28;20034;-86
2024/01/25 12:40:39;;;;;;;0.10;0.10;;;;;;;;;;4978049;28;20046;-89
2024/01/25 12:43:05;;;;;;;0.10;0.10;;;;;;;;;;4962808;28;20042;-89
2024/01/25 12:45:31;;;;;;;0.10;0.10;;;;;;;;;;4965292;28;20046;-89
2024/01/25 12:47:57;;;;;;;0.10;0.10;;;;;;;;;;4966082;28;20450;-93
2024/01/25 12:50:23;;;;;;;0.10;0.10;;;;;;;;;;4979215;28;20097;-88
2024/01/25 12:52:50;;;;;;;0.10;0.10;;;;;;;;;;4977994;28;20038;-88
2024/01/25 12:55:16;;;;;;;0.10;0.10;;;;;;;;;;4964072;28;20041;-91
2024/01/25 12:57:42;;;;;;;0.10;0.10;;;;;;;;;;4962687;28;20450;-88
2024/01/25 13:00:09;;;;;;;0.10;0.10;;;;;;;;;;4977931;28;20046;-88
2024/01/25 13:02:35;;;;;;;0.10;0.10;;;;;;;;;;4994854;28;20053;-86
2024/01/25 13:05:01;;;;;;;0.10;0.10;;;;;;;;;;4961691;28;20053;-85
2024/01/25 13:07:27;;;;;;;0.10;0.10;;;;;;;;;;4977881;28;20498;-86
2024/01/25 13:09:53;;;;;;;0.10;0.10;;;;;;;;;;4976938;28;20042;-87
2024/01/25 13:12:19;;;;;;;0.10;0.10;;;;;;;;;;4961605;28;20034;-86
2024/01/25 13:14:45;;;;;;;0.10;0.10;;;;;;;;;;4977074;28;20042;-85
2024/01/25 13:17:11;;;;;;;0.10;0.10;;;;;;;;;;4961119;28;20042;-85
2024/01/25 13:19:37;;;;;;;0.10;0.10;;;;;;;;;;4993045;28;20042;-86
2024/01/25 13:22:03;;;;;;;0.10;0.10;;;;;;;;;;4960980;28;20129;-86
2024/01/25 13:24:29;;;;;;;0.10;0.10;;;;;;;;;;4960832;28;20046;-86
2024/01/25 13:26:55;;;;;;;0.10;0.10;;;;;;;;;;4960758;28;20104;-87
2024/01/25 13:29:21;;;;;;;0.10;0.10;;;;;;;;;;4976669;28;20053;-87
2024/01/25 13:31:48;;;;;;;0.10;0.10;;;;;;;;;;4960591;28;20074;-87
2024/01/25 13:34:14;;;;;;;0.10;0.10;;;;;;;;;;4993129;28;20050;-86
2024/01/25 13:36:40;;;;;;;0.10;0.10;;;;;;;;;;4976653;28;20125;-86
2024/01/25 13:39:06;;;;;;;0.10;0.10;;;;;;;;;;4977277;28;20061;-86
2024/01/25 13:41:32;;;;;;;0.10;0.10;;;;;;;;;;4976448;28;20038;-86
2024/01/25 13:43:58;;;;;;;0.10;0.10;;;;;;;;;;4976400;28;20038;-86
2024/01/25 13:46:24;;;;;;;0.10;0.10;;;;;;;;;;4976727;28;20042;-86
2024/01/25 13:48:50;;;;;;;0.10;0.10;;;;;;;;;;4960249;28;20055;-86
2024/01/25 13:51:16;;;;;;;0.10;0.10;;;;;;;;;;4976168;28;20184;-86
2024/01/25 13:53:42;;;;;;;0.10;0.10;;;;;;;;;;4960389;28;20045;-86
2024/01/25 13:56:08;;;;;;;0.10;0.10;;;;;;;;;;4960517;28;20043;-85
2024/01/25 13:58:35;;;;;;;1.98;0.30;;;;;;;;;;4976345;28;20042;-86
2024/01/25 14:01:01;;;;;;;0.10;0.10;;;;;;;;;;4960989;28;20629;-87
2024/01/25 14:03:27;;;;;;;0.10;0.10;;;;;;;;;;4976478;28;20045;-89
2024/01/25 14:05:55;;;;;;;0.10;0.10;;;;;;;;;;4961415;28;20092;-91
2024/01/25 14:08:21;;;;;;;0.20;0.20;;;;;;;;;;4961802;28;20050;-92
2024/01/25 14:10:47;;;;;;;0.10;0.10;;;;;;;;;;4961198;28;20038;-91
2024/01/25 14:13:14;;;;;;;0.10;0.10;;;;;;;;;;4961485;28;20121;-94
2024/01/25 14:15:40;;;;;;;0.10;0.10;;;;;;;;;;4961326;28;20042;-92
2024/01/25 14:18:06;;;;;;;0.10;0.10;;;;;;;;;;4961772;28;20092;-91
2024/01/25 14:20:32;;;;;;;0.10;0.10;;;;;;;;;;4961554;28;20076;-91
2024/01/25 14:22:58;;;;;;;0.10;0.10;;;;;;;;;;4961235;28;20042;-87
2024/01/25 14:25:24;;;;;;;0.10;0.10;;;;;;;;;;4959982;28;20046;-88
2024/01/25 14:27:50;;;;;;;0.10;0.10;;;;;;;;;;4977275;28;20068;-90
2024/01/25 14:30:16;;;;;;;0.10;0.10;;;;;;;;;;4976361;28;20042;-89
2024/01/25 14:32:42;;;;;;;0.10;0.10;;;;;;;;;;4992508;28;20548;-88
2024/01/25 14:35:08;;;;;;;0.10;0.10;;;;;;;;;;4976810;28;20045;-90
2024/01/25 14:37:34;;;;;;;0.10;0.10;;;;;;;;;;4960378;28;20038;-89